createdAt,value
2024-01-29T00:00:31.625Z,1017.7
2024-01-29T00:01:47.921Z,1017.6
2024-01-29T00:03:04.231Z,1017.6
2024-01-29T00:04:19.530Z,1017.6
2024-01-29T00:05:35.839Z,1017.6
2024-01-29T00:06:52.131Z,1017.6
2024-01-29T00:09:24.722Z,1017.7
2024-01-29T00:10:41.012Z,1017.6
2024-01-29T00:11:57.314Z,1017.6
2024-01-29T00:13:13.597Z,1017.6
2024-01-29T00:14:29.905Z,1017.6
2024-01-29T00:15:46.198Z,1017.5
2024-01-29T00:17:02.497Z,1017.5
2024-01-29T00:18:18.796Z,1017.5
2024-01-29T00:19:35.076Z,1017.4
2024-01-29T00:20:50.383Z,1017.4
2024-01-29T00:22:06.683Z,1017.4
2024-01-29T00:23:22.990Z,1017.4
2024-01-29T00:24:39.281Z,1017.4
2024-01-29T00:25:55.583Z,1017.4
2024-01-29T00:27:11.880Z,1017.4
2024-01-29T00:28:28.172Z,1017.4
2024-01-29T00:29:44.475Z,1017.3
2024-01-29T00:31:00.756Z,1017.4
2024-01-29T00:32:17.052Z,1017.3
2024-01-29T00:33:33.344Z,1017.3
2024-01-29T00:34:49.646Z,1017.3
2024-01-29T00:36:05.944Z,1017.4
2024-01-29T00:37:21.252Z,1017.4
2024-01-29T00:38:37.552Z,1017.4
2024-01-29T00:39:53.842Z,1017.4
2024-01-29T00:41:10.139Z,1017.4
2024-01-29T00:42:26.442Z,1017.4
2024-01-29T00:43:42.730Z,1017.4
2024-01-29T00:44:59.023Z,1017.4
2024-01-29T00:46:15.313Z,1017.5
2024-01-29T00:47:31.615Z,1017.5
2024-01-29T00:48:47.913Z,1017.5
2024-01-29T00:50:04.194Z,1017.5
2024-01-29T00:51:20.493Z,1017.5
2024-01-29T00:52:36.795Z,1017.5
2024-01-29T00:53:52.103Z,1017.5
2024-01-29T00:55:08.391Z,1017.5
2024-01-29T00:56:24.696Z,1017.5
2024-01-29T00:57:40.999Z,1017.5
2024-01-29T00:58:57.277Z,1017.4
2024-01-29T01:00:13.583Z,1017.4
2024-01-29T01:01:28.901Z,1017.4
2024-01-29T01:02:45.192Z,1017.4
2024-01-29T01:04:01.488Z,1017.4
2024-01-29T01:05:17.796Z,1017.4
2024-01-29T01:06:34.087Z,1017.4
2024-01-29T01:07:50.406Z,1017.4
2024-01-29T01:09:06.671Z,1017.3
2024-01-29T01:10:22.979Z,1017.4
2024-01-29T01:11:39.261Z,1017.3
2024-01-29T01:12:55.557Z,1017.3
2024-01-29T01:14:11.853Z,1017.3
2024-01-29T01:15:28.149Z,1017.3
2024-01-29T01:16:44.437Z,1017.3
2024-01-29T01:17:59.753Z,1017.3
2024-01-29T01:19:16.056Z,1017.3
2024-01-29T01:20:32.359Z,1017.4
2024-01-29T01:21:48.651Z,1017.3
2024-01-29T01:23:04.936Z,1017.4
2024-01-29T01:24:21.242Z,1017.4
2024-01-29T01:25:37.539Z,1017.4
2024-01-29T01:26:53.822Z,1017.4
2024-01-29T01:28:10.112Z,1017.4
2024-01-29T01:29:26.414Z,1017.4
2024-01-29T01:30:42.710Z,1017.4
2024-01-29T01:31:59.001Z,1017.4
2024-01-29T01:33:15.317Z,1017.4
2024-01-29T01:34:30.605Z,1017.4
2024-01-29T01:35:46.935Z,1017.4
2024-01-29T01:37:03.217Z,1017.3
2024-01-29T01:38:19.495Z,1017.3
2024-01-29T01:39:35.795Z,1017.3
2024-01-29T01:40:52.098Z,1017.3
2024-01-29T01:42:08.385Z,1017.3
2024-01-29T01:43:24.682Z,1017.3
2024-01-29T01:44:40.987Z,1017.3
2024-01-29T01:45:57.290Z,1017.2
2024-01-29T01:47:13.578Z,1017.2
2024-01-29T01:48:29.883Z,1017.2
2024-01-29T01:49:46.155Z,1017.2
2024-01-29T01:51:01.473Z,1017.1
2024-01-29T01:52:17.764Z,1017.2
2024-01-29T01:53:34.068Z,1017.2
2024-01-29T01:54:50.357Z,1017.1
2024-01-29T01:56:06.665Z,1017.1
2024-01-29T01:57:22.956Z,1017.1
2024-01-29T01:58:39.250Z,1017.2
2024-01-29T01:59:55.535Z,1017.2
2024-01-29T02:01:11.824Z,1017.2
2024-01-29T02:02:28.138Z,1017.2
2024-01-29T02:03:44.426Z,1017.1
2024-01-29T02:05:00.720Z,1017.1
2024-01-29T02:06:17.022Z,1017.1
2024-01-29T02:07:32.343Z,1017
2024-01-29T02:08:48.615Z,1017
2024-01-29T02:10:04.911Z,1017
2024-01-29T02:11:21.224Z,1017
2024-01-29T02:12:37.502Z,1016.9
2024-01-29T02:13:53.817Z,1017
2024-01-29T02:15:10.114Z,1016.9
2024-01-29T02:16:26.392Z,1016.9
2024-01-29T02:17:42.694Z,1016.8
2024-01-29T02:18:58.979Z,1016.8
2024-01-29T02:20:15.276Z,1016.7
2024-01-29T02:21:31.585Z,1016.7
2024-01-29T02:22:47.895Z,1016.7
2024-01-29T02:24:03.199Z,1016.6
2024-01-29T02:25:19.483Z,1016.7
2024-01-29T02:26:35.767Z,1016.7
2024-01-29T02:27:52.059Z,1016.7
2024-01-29T02:29:08.356Z,1016.6
2024-01-29T02:30:24.684Z,1016.6
2024-01-29T02:31:40.956Z,1016.6
2024-01-29T02:32:57.242Z,1016.6
2024-01-29T02:34:13.538Z,1016.6
2024-01-29T02:35:29.836Z,1016.6
2024-01-29T02:36:46.149Z,1016.6
2024-01-29T02:38:02.432Z,1016.6
2024-01-29T02:39:18.724Z,1016.6
2024-01-29T02:40:34.042Z,1016.6
2024-01-29T02:41:50.329Z,1016.6
2024-01-29T02:43:06.622Z,1016.6
2024-01-29T02:44:22.921Z,1016.5
2024-01-29T02:45:39.233Z,1016.6
2024-01-29T02:46:55.512Z,1016.5
2024-01-29T02:48:11.807Z,1016.5
2024-01-29T02:49:28.126Z,1016.4
2024-01-29T02:50:44.399Z,1016.5
2024-01-29T02:52:00.690Z,1016.5
2024-01-29T02:53:17.022Z,1016.4
2024-01-29T02:54:33.296Z,1016.5
2024-01-29T02:55:49.584Z,1016.4
2024-01-29T02:57:04.888Z,1016.5
2024-01-29T02:58:21.190Z,1016.5
2024-01-29T02:59:37.497Z,1016.4
2024-01-29T03:00:53.798Z,1016.4
2024-01-29T03:02:10.091Z,1016.4
2024-01-29T03:03:26.379Z,1016.4
2024-01-29T03:04:42.676Z,1016.4
2024-01-29T03:05:58.966Z,1016.4
2024-01-29T03:07:15.262Z,1016.4
2024-01-29T03:08:31.583Z,1016.3
2024-01-29T03:09:47.847Z,1016.4
2024-01-29T03:11:04.149Z,1016.4
2024-01-29T03:12:20.435Z,1016.3
2024-01-29T03:13:35.749Z,1016.4
2024-01-29T03:14:52.064Z,1016.4
2024-01-29T03:16:08.369Z,1016.4
2024-01-29T03:17:24.646Z,1016.4
2024-01-29T03:18:40.934Z,1016.3
2024-01-29T03:19:57.241Z,1016.4
2024-01-29T03:21:13.532Z,1016.4
2024-01-29T03:22:29.816Z,1016.3
2024-01-29T03:23:46.120Z,1016.3
2024-01-29T03:25:02.405Z,1016.3
2024-01-29T03:26:18.708Z,1016.3
2024-01-29T03:27:35.014Z,1016.3
2024-01-29T03:28:51.292Z,1016.3
2024-01-29T03:30:06.602Z,1016.2
2024-01-29T03:31:22.897Z,1016.3
2024-01-29T03:32:39.211Z,1016.2
2024-01-29T03:33:55.489Z,1016.2
2024-01-29T03:35:11.799Z,1016.2
2024-01-29T03:36:28.084Z,1016.2
2024-01-29T03:37:44.375Z,1016.2
2024-01-29T03:39:00.671Z,1016.1
2024-01-29T03:40:16.966Z,1016.2
2024-01-29T03:41:33.273Z,1016.1
2024-01-29T03:42:49.565Z,1016.1
2024-01-29T03:44:05.854Z,1016.2
2024-01-29T03:45:22.154Z,1016.2
2024-01-29T03:46:37.478Z,1016.1
2024-01-29T03:47:53.000Z,1016.1
2024-01-29T03:49:10.054Z,1016.2
2024-01-29T03:50:26.363Z,1016.1
2024-01-29T03:51:42.655Z,1016.1
2024-01-29T03:52:58.934Z,1016.1
2024-01-29T03:54:15.240Z,1016.1
2024-01-29T03:55:31.552Z,1016.1
2024-01-29T03:56:47.834Z,1016
2024-01-29T03:58:04.126Z,1016.1
2024-01-29T03:59:20.426Z,1016.1
2024-01-29T04:00:36.713Z,1016.1
2024-01-29T04:01:53.002Z,1016.1
2024-01-29T04:03:08.323Z,1016.1
2024-01-29T04:04:24.623Z,1016.1
2024-01-29T04:05:40.908Z,1016.2
2024-01-29T04:06:57.216Z,1016.1
2024-01-29T04:08:13.513Z,1016.1
2024-01-29T04:09:29.831Z,1016.1
2024-01-29T04:10:46.091Z,1016.1
2024-01-29T04:12:02.393Z,1016.1
2024-01-29T04:13:18.692Z,1016.1
2024-01-29T04:14:34.990Z,1016.1
2024-01-29T04:15:51.274Z,1016.1
2024-01-29T04:17:07.593Z,1016.1
2024-01-29T04:18:23.860Z,1016.1
2024-01-29T04:19:39.189Z,1016.1
2024-01-29T04:20:55.493Z,1016.1
2024-01-29T04:22:11.776Z,1016.1
2024-01-29T04:23:28.060Z,1016.1
2024-01-29T04:24:44.361Z,1016.1
2024-01-29T04:26:00.651Z,1016.1
2024-01-29T04:27:16.947Z,1016.2
2024-01-29T04:28:33.255Z,1016.2
2024-01-29T04:29:49.551Z,1016.2
2024-01-29T04:31:05.831Z,1016.1
2024-01-29T04:32:22.143Z,1016.2
2024-01-29T04:33:38.429Z,1016.2
2024-01-29T04:34:54.721Z,1016.2
2024-01-29T04:36:10.041Z,1016.2
2024-01-29T04:37:26.341Z,1016.2
2024-01-29T04:38:42.632Z,1016.1
2024-01-29T04:39:58.918Z,1016.1
2024-01-29T04:41:15.218Z,1016.2
2024-01-29T04:42:31.506Z,1016.2
2024-01-29T04:43:47.827Z,1016.1
2024-01-29T04:45:04.107Z,1016.2
2024-01-29T04:46:20.416Z,1016.1
2024-01-29T04:47:36.729Z,1016.1
2024-01-29T04:48:53.002Z,1016.1
2024-01-29T04:50:09.296Z,1016.2
2024-01-29T04:51:25.574Z,1016.2
2024-01-29T04:52:40.892Z,1016.1
2024-01-29T04:53:57.184Z,1016.1
2024-01-29T04:55:13.497Z,1016.1
2024-01-29T04:56:29.809Z,1016.1
2024-01-29T04:57:46.078Z,1016.1
2024-01-29T04:59:02.398Z,1016.1
2024-01-29T05:00:18.667Z,1016.1
2024-01-29T05:01:34.965Z,1016.2
2024-01-29T05:02:51.248Z,1016.1
2024-01-29T05:04:07.546Z,1016.1
2024-01-29T05:05:23.840Z,1016.2
2024-01-29T05:06:40.139Z,1016.1
2024-01-29T05:07:56.439Z,1016.1
2024-01-29T05:09:11.743Z,1016.2
2024-01-29T05:10:28.067Z,1016.1
2024-01-29T05:11:44.334Z,1016.1
2024-01-29T05:13:00.640Z,1016.2
2024-01-29T05:14:16.927Z,1016.1
2024-01-29T05:15:33.231Z,1016.1
2024-01-29T05:16:48.553Z,1016.2
2024-01-29T05:18:04.854Z,1016.2
2024-01-29T05:19:21.131Z,1016.1
2024-01-29T05:20:37.439Z,1016.1
2024-01-29T05:21:53.716Z,1016.1
2024-01-29T05:23:10.013Z,1016.1
2024-01-29T05:24:26.328Z,1016.1
2024-01-29T05:25:42.636Z,1016.1
2024-01-29T05:26:58.908Z,1016.1
2024-01-29T05:28:15.202Z,1016.1
2024-01-29T05:29:31.489Z,1016.1
2024-01-29T05:30:47.000Z,1016.1
2024-01-29T05:32:04.088Z,1016.1
2024-01-29T05:33:19.422Z,1016.1
2024-01-29T05:34:35.718Z,1016.1
2024-01-29T05:35:51.995Z,1016.2
2024-01-29T05:37:08.301Z,1016.1
2024-01-29T05:38:24.587Z,1016.1
2024-01-29T05:39:40.871Z,1016.2
2024-01-29T05:40:57.171Z,1016.1
2024-01-29T05:42:13.463Z,1016.1
2024-01-29T05:43:29.786Z,1016.1
2024-01-29T05:44:46.058Z,1016.1
2024-01-29T05:46:02.356Z,1016.1
2024-01-29T05:47:18.673Z,1016.1
2024-01-29T05:48:34.968Z,1016.1
2024-01-29T05:49:50.255Z,1016.1
2024-01-29T05:51:06.505Z,1016.1
2024-01-29T05:52:22.757Z,1016.1
2024-01-29T05:53:38.988Z,1016.1
2024-01-29T05:54:55.284Z,1016.1
2024-01-29T05:56:11.608Z,1016.1
2024-01-29T05:57:27.880Z,1016.2
2024-01-29T05:58:44.183Z,1016.1
2024-01-29T06:00:00.490Z,1016.2
2024-01-29T06:01:16.759Z,1016.1
2024-01-29T06:02:33.075Z,1016.1
2024-01-29T06:03:49.385Z,1016.1
2024-01-29T06:05:05.657Z,1016.1
2024-01-29T06:06:20.971Z,1016.2
2024-01-29T06:07:37.267Z,1016.2
2024-01-29T06:08:53.555Z,1016.2
2024-01-29T06:10:09.841Z,1016.2
2024-01-29T06:11:26.161Z,1016.2
2024-01-29T06:12:42.468Z,1016.2
2024-01-29T06:13:58.738Z,1016.2
2024-01-29T06:15:15.022Z,1016.3
2024-01-29T06:16:31.335Z,1016.2
2024-01-29T06:17:47.613Z,1016.3
2024-01-29T06:19:03.907Z,1016.2
2024-01-29T06:20:20.217Z,1016.2
2024-01-29T06:21:36.499Z,1016.3
2024-01-29T06:22:51.814Z,1016.3
2024-01-29T06:24:08.062Z,1016.2
2024-01-29T06:25:24.386Z,1016.3
2024-01-29T06:26:40.662Z,1016.3
2024-01-29T06:27:56.954Z,1016.3
2024-01-29T06:29:13.252Z,1016.3
2024-01-29T06:30:29.549Z,1016.3
2024-01-29T06:31:45.802Z,1016.3
2024-01-29T06:33:02.048Z,1016.3
2024-01-29T06:34:18.303Z,1016.3
2024-01-29T06:35:34.537Z,1016.4
2024-01-29T06:36:50.782Z,1016.3
2024-01-29T06:38:07.001Z,1016.3
2024-01-29T06:39:22.277Z,1016.4
2024-01-29T06:40:38.527Z,1016.4
2024-01-29T06:41:54.743Z,1016.3
2024-01-29T06:43:10.993Z,1016.3
2024-01-29T06:44:27.235Z,1016.3
2024-01-29T06:45:43.469Z,1016.3
2024-01-29T06:46:59.707Z,1016.3
2024-01-29T06:48:15.958Z,1016.3
2024-01-29T06:49:32.207Z,1016.3
2024-01-29T06:50:48.469Z,1016.3
2024-01-29T06:52:04.674Z,1016.3
2024-01-29T06:53:20.959Z,1016.3
2024-01-29T06:54:37.173Z,1016.3
2024-01-29T06:55:52.414Z,1016.3
2024-01-29T06:57:08.660Z,1016.3
2024-01-29T06:58:24.898Z,1016.3
2024-01-29T06:59:41.141Z,1016.3
2024-01-29T07:00:57.396Z,1016.3
2024-01-29T07:02:13.633Z,1016.4
2024-01-29T07:03:29.870Z,1016.3
2024-01-29T07:04:46.136Z,1016.4
2024-01-29T07:06:02.346Z,1016.4
2024-01-29T07:07:18.000Z,1016.4
2024-01-29T07:08:34.834Z,1016.4
2024-01-29T07:09:51.069Z,1016.4
2024-01-29T07:11:07.327Z,1016.5
2024-01-29T07:12:22.570Z,1016.5
2024-01-29T07:13:38.822Z,1016.5
2024-01-29T07:14:55.065Z,1016.5
2024-01-29T07:16:11.321Z,1016.4
2024-01-29T07:17:27.534Z,1016.4
2024-01-29T07:18:43.777Z,1016.4
2024-01-29T07:20:00.026Z,1016.4
2024-01-29T07:21:16.265Z,1016.5
2024-01-29T07:22:32.511Z,1016.5
2024-01-29T07:23:48.747Z,1016.5
2024-01-29T07:25:04.987Z,1016.5
2024-01-29T07:26:21.237Z,1016.6
2024-01-29T07:27:37.480Z,1016.5
2024-01-29T07:28:52.735Z,1016.6
2024-01-29T07:30:08.971Z,1016.5
2024-01-29T07:31:25.214Z,1016.5
2024-01-29T07:32:41.468Z,1016.5
2024-01-29T07:33:57.694Z,1016.6
2024-01-29T07:35:13.939Z,1016.6
2024-01-29T07:36:30.184Z,1016.6
2024-01-29T07:37:46.426Z,1016.6
2024-01-29T07:39:02.661Z,1016.6
2024-01-29T07:40:18.915Z,1016.6
2024-01-29T07:41:35.157Z,1016.6
2024-01-29T07:42:51.398Z,1016.6
2024-01-29T07:44:07.640Z,1016.6
2024-01-29T07:45:22.882Z,1016.6
2024-01-29T07:46:39.137Z,1016.6
2024-01-29T07:47:55.374Z,1016.6
2024-01-29T07:49:11.607Z,1016.5
2024-01-29T07:50:27.863Z,1016.5
2024-01-29T07:51:44.098Z,1016.5
2024-01-29T07:53:00.344Z,1016.5
2024-01-29T07:54:16.593Z,1016.5
2024-01-29T07:55:32.823Z,1016.4
2024-01-29T07:56:49.080Z,1016.4
2024-01-29T07:58:05.309Z,1016.4
2024-01-29T07:59:21.554Z,1016.5
2024-01-29T08:00:37.776Z,1016.5
2024-01-29T08:01:53.033Z,1016.5
2024-01-29T08:03:09.291Z,1016.5
2024-01-29T08:04:25.522Z,1016.4
2024-01-29T08:05:41.770Z,1016.4
2024-01-29T08:06:58.017Z,1016.4
2024-01-29T08:08:14.256Z,1016.3
2024-01-29T08:09:30.491Z,1016.4
2024-01-29T08:10:46.741Z,1016.3
2024-01-29T08:12:02.966Z,1016.3
2024-01-29T08:13:19.210Z,1016.2
2024-01-29T08:14:35.464Z,1016.2
2024-01-29T08:15:51.695Z,1016.3
2024-01-29T08:17:07.931Z,1016.3
2024-01-29T08:18:23.192Z,1016.2
2024-01-29T08:19:39.441Z,1016.2
2024-01-29T08:20:55.680Z,1016.2
2024-01-29T08:22:11.931Z,1016.3
2024-01-29T08:23:28.166Z,1016.2
2024-01-29T08:24:44.410Z,1016.2
2024-01-29T08:26:00.639Z,1016.1
2024-01-29T08:27:16.891Z,1016.1
2024-01-29T08:28:33.128Z,1016.1
2024-01-29T08:29:49.375Z,1016.1
2024-01-29T08:31:05.611Z,1016.2
2024-01-29T08:32:21.851Z,1016.1
2024-01-29T08:33:38.096Z,1016.1
2024-01-29T08:34:53.353Z,1016.1
2024-01-29T08:36:09.604Z,1016.1
2024-01-29T08:37:25.834Z,1016
2024-01-29T08:38:42.081Z,1016
2024-01-29T08:39:58.308Z,1016.1
2024-01-29T08:41:14.554Z,1016.1
2024-01-29T08:42:30.791Z,1016
2024-01-29T08:43:47.036Z,1016.1
2024-01-29T08:45:03.294Z,1016.1
2024-01-29T08:46:19.526Z,1016.1
2024-01-29T08:47:35.774Z,1016.1
2024-01-29T08:48:52.012Z,1016.1
2024-01-29T08:50:08.258Z,1016.1
2024-01-29T08:51:23.517Z,1016.1
2024-01-29T08:52:39.751Z,1016.1
2024-01-29T08:53:55.996Z,1016.1
2024-01-29T08:55:12.235Z,1016.1
2024-01-29T08:56:28.472Z,1016.1
2024-01-29T08:57:44.715Z,1016.1
2024-01-29T08:59:00.950Z,1016.1
2024-01-29T09:00:17.196Z,1016.1
2024-01-29T09:01:33.437Z,1016.1
2024-01-29T09:02:49.677Z,1016.1
2024-01-29T09:04:05.915Z,1016.1
2024-01-29T09:05:22.155Z,1016.1
2024-01-29T09:06:38.409Z,1016.1
2024-01-29T09:07:53.664Z,1016.1
2024-01-29T09:09:09.903Z,1016.1
2024-01-29T09:10:26.149Z,1016.1
2024-01-29T09:11:42.390Z,1016
2024-01-29T09:12:58.626Z,1016.1
2024-01-29T09:14:14.864Z,1016.1
2024-01-29T09:15:31.108Z,1016.1
2024-01-29T09:16:47.352Z,1016.1
2024-01-29T09:18:03.597Z,1016.1
2024-01-29T09:19:19.830Z,1016.1
2024-01-29T09:20:36.077Z,1016.1
2024-01-29T09:21:52.302Z,1016.1
2024-01-29T09:23:08.561Z,1016.1
2024-01-29T09:24:23.819Z,1016.1
2024-01-29T09:25:40.047Z,1016.1
2024-01-29T09:26:56.293Z,1016.1
2024-01-29T09:28:12.522Z,1016.1
2024-01-29T09:29:28.778Z,1016.1
2024-01-29T09:30:45.014Z,1016.1
2024-01-29T09:32:00.272Z,1016.1
2024-01-29T09:33:16.507Z,1016.1
2024-01-29T09:34:32.749Z,1016.1
2024-01-29T09:35:48.988Z,1016.1
2024-01-29T09:37:05.242Z,1016.1
2024-01-29T09:38:21.483Z,1016.1
2024-01-29T09:39:37.713Z,1016.1
2024-01-29T09:40:53.971Z,1016.1
2024-01-29T09:42:10.198Z,1016.1
2024-01-29T09:43:26.447Z,1016.1
2024-01-29T09:44:42.686Z,1016.1
2024-01-29T09:45:58.926Z,1016.1
2024-01-29T09:47:15.167Z,1016.1
2024-01-29T09:48:30.417Z,1016.1
2024-01-29T09:49:46.663Z,1016.1
2024-01-29T09:51:02.910Z,1016.1
2024-01-29T09:52:19.140Z,1016.1
2024-01-29T09:53:35.382Z,1016.1
2024-01-29T09:54:51.630Z,1016.1
2024-01-29T09:56:07.871Z,1016.2
2024-01-29T09:57:24.110Z,1016.2
2024-01-29T09:58:40.357Z,1016.1
2024-01-29T09:59:56.597Z,1016.1
2024-01-29T10:01:12.841Z,1016.1
2024-01-29T10:02:29.082Z,1016.2
2024-01-29T10:03:45.320Z,1016.1
2024-01-29T10:05:00.563Z,1016.1
2024-01-29T10:06:16.808Z,1016.1
2024-01-29T10:07:33.061Z,1016.1
2024-01-29T10:08:49.293Z,1016.1
2024-01-29T10:10:05.533Z,1016.1
2024-01-29T10:11:21.778Z,1016.1
2024-01-29T10:12:38.008Z,1016.1
2024-01-29T10:13:54.250Z,1016.1
2024-01-29T10:15:10.492Z,1016.1
2024-01-29T10:16:26.734Z,1016
2024-01-29T10:17:42.984Z,1016.1
2024-01-29T10:18:59.228Z,1016.1
2024-01-29T10:20:15.461Z,1016.1
2024-01-29T10:21:30.708Z,1016.1
2024-01-29T10:22:46.967Z,1016
2024-01-29T10:24:03.206Z,1016
2024-01-29T10:25:19.444Z,1016
2024-01-29T10:26:35.684Z,1016
2024-01-29T10:27:51.929Z,1016
2024-01-29T10:29:08.162Z,1016
2024-01-29T10:30:24.403Z,1016
2024-01-29T10:31:40.633Z,1015.9
2024-01-29T10:32:56.886Z,1015.9
2024-01-29T10:34:13.134Z,1016
2024-01-29T10:35:29.367Z,1015.9
2024-01-29T10:36:45.595Z,1016
2024-01-29T10:38:00.864Z,1016
2024-01-29T10:39:17.095Z,1016
2024-01-29T10:40:33.339Z,1015.9
2024-01-29T10:41:49.575Z,1015.9
2024-01-29T10:43:05.831Z,1015.9
2024-01-29T10:44:22.064Z,1015.9
2024-01-29T10:45:38.303Z,1016
2024-01-29T10:46:54.535Z,1016
2024-01-29T10:48:10.781Z,1015.9
2024-01-29T10:49:27.038Z,1015.9
2024-01-29T10:50:43.269Z,1015.9
2024-01-29T10:51:59.517Z,1015.9
2024-01-29T10:53:15.742Z,1015.9
2024-01-29T10:54:31.009Z,1015.9
2024-01-29T10:55:47.248Z,1015.9
2024-01-29T10:57:03.486Z,1015.9
2024-01-29T10:58:19.730Z,1015.9
2024-01-29T10:59:35.965Z,1015.9
2024-01-29T11:00:52.204Z,1016
2024-01-29T11:02:08.455Z,1015.9
2024-01-29T11:03:24.689Z,1015.9
2024-01-29T11:04:40.928Z,1015.9
2024-01-29T11:05:57.171Z,1015.9
2024-01-29T11:07:13.406Z,1016
2024-01-29T11:08:29.643Z,1015.9
2024-01-29T11:09:45.889Z,1015.9
2024-01-29T11:11:01.156Z,1015.9
2024-01-29T11:12:17.385Z,1015.9
2024-01-29T11:13:33.637Z,1015.9
2024-01-29T11:14:49.871Z,1015.8
2024-01-29T11:16:06.102Z,1015.9
2024-01-29T11:17:22.344Z,1015.9
2024-01-29T11:18:38.587Z,1015.9
2024-01-29T11:19:54.841Z,1015.9
2024-01-29T11:21:11.072Z,1015.9
2024-01-29T11:22:27.317Z,1015.8
2024-01-29T11:23:43.554Z,1015.9
2024-01-29T11:24:59.797Z,1015.9
2024-01-29T11:26:16.039Z,1015.8
2024-01-29T11:27:31.297Z,1015.9
2024-01-29T11:28:47.540Z,1015.9
2024-01-29T11:30:03.774Z,1015.9
2024-01-29T11:31:20.005Z,1015.9
2024-01-29T11:32:36.248Z,1015.8
2024-01-29T11:33:52.499Z,1015.9
2024-01-29T11:35:08.728Z,1015.8
2024-01-29T11:36:24.977Z,1015.8
2024-01-29T11:37:41.000Z,1015.8
2024-01-29T11:38:57.456Z,1015.8
2024-01-29T11:40:13.691Z,1015.7
2024-01-29T11:41:29.927Z,1015.7
2024-01-29T11:42:46.172Z,1015.7
2024-01-29T11:44:01.433Z,1015.7
2024-01-29T11:45:17.665Z,1015.8
2024-01-29T11:46:33.904Z,1015.7
2024-01-29T11:47:50.144Z,1015.8
2024-01-29T11:49:06.399Z,1015.8
2024-01-29T11:50:22.643Z,1015.7
2024-01-29T11:51:38.865Z,1015.7
2024-01-29T11:52:55.114Z,1015.7
2024-01-29T11:54:11.357Z,1015.7
2024-01-29T11:55:27.603Z,1015.7
2024-01-29T11:56:43.832Z,1015.7
2024-01-29T11:58:00.080Z,1015.6
2024-01-29T11:59:16.306Z,1015.6
2024-01-29T12:00:31.567Z,1015.6
2024-01-29T12:01:47.802Z,1015.6
2024-01-29T12:03:04.048Z,1015.6
2024-01-29T12:04:20.293Z,1015.6
2024-01-29T12:05:36.539Z,1015.6
2024-01-29T12:06:52.766Z,1015.6
2024-01-29T12:08:09.008Z,1015.6
2024-01-29T12:09:25.258Z,1015.6
2024-01-29T12:10:41.489Z,1015.6
2024-01-29T12:11:57.732Z,1015.6
2024-01-29T12:13:13.974Z,1015.6
2024-01-29T12:14:30.217Z,1015.6
2024-01-29T12:15:46.455Z,1015.5
2024-01-29T12:17:01.718Z,1015.6
2024-01-29T12:18:17.959Z,1015.5
2024-01-29T12:19:34.192Z,1015.5
2024-01-29T12:20:50.436Z,1015.6
2024-01-29T12:22:06.681Z,1015.5
2024-01-29T12:23:22.923Z,1015.5
2024-01-29T12:24:39.145Z,1015.5
2024-01-29T12:25:55.391Z,1015.5
2024-01-29T12:27:11.637Z,1015.5
2024-01-29T12:28:27.873Z,1015.4
2024-01-29T12:29:44.111Z,1015.5
2024-01-29T12:31:00.358Z,1015.5
2024-01-29T12:32:16.595Z,1015.4
2024-01-29T12:33:31.844Z,1015.4
2024-01-29T12:34:48.087Z,1015.4
2024-01-29T12:36:04.332Z,1015.4
2024-01-29T12:37:20.581Z,1015.4
2024-01-29T12:38:36.806Z,1015.4
2024-01-29T12:39:53.052Z,1015.4
2024-01-29T12:41:09.300Z,1015.4
2024-01-29T12:42:25.531Z,1015.4
2024-01-29T12:43:41.786Z,1015.4
2024-01-29T12:44:58.013Z,1015.4
2024-01-29T12:46:14.259Z,1015.4
2024-01-29T12:47:30.504Z,1015.4
2024-01-29T12:48:46.737Z,1015.4
2024-01-29T12:50:01.997Z,1015.4
2024-01-29T12:51:18.230Z,1015.4
2024-01-29T12:52:34.470Z,1015.3
2024-01-29T12:53:50.712Z,1015.3
2024-01-29T12:55:06.958Z,1015.3
2024-01-29T12:56:23.200Z,1015.2
2024-01-29T12:57:39.440Z,1015.3
2024-01-29T12:58:55.679Z,1015.2
2024-01-29T13:00:11.906Z,1015.3
2024-01-29T13:01:28.144Z,1015.3
2024-01-29T13:02:44.395Z,1015.3
2024-01-29T13:04:00.631Z,1015.2
2024-01-29T13:05:16.883Z,1015.2
2024-01-29T13:06:32.134Z,1015.1
2024-01-29T13:07:48.363Z,1015.1
2024-01-29T13:09:04.615Z,1015.2
2024-01-29T13:10:20.849Z,1015.2
2024-01-29T13:11:37.086Z,1015.2
2024-01-29T13:12:53.325Z,1015.2
2024-01-29T13:14:09.569Z,1015.1
2024-01-29T13:15:25.804Z,1015.2
2024-01-29T13:16:42.047Z,1015.2
2024-01-29T13:17:58.294Z,1015.2
2024-01-29T13:19:14.525Z,1015.2
2024-01-29T13:20:30.775Z,1015.2
2024-01-29T13:21:47.014Z,1015.2
2024-01-29T13:23:02.268Z,1015.2
2024-01-29T13:24:18.000Z,1015.1
2024-01-29T13:25:34.746Z,1015.1
2024-01-29T13:26:50.987Z,1015.2
2024-01-29T13:28:07.241Z,1015.2
2024-01-29T13:29:23.480Z,1015.2
2024-01-29T13:30:39.723Z,1015.2
2024-01-29T13:31:55.945Z,1015.3
2024-01-29T13:33:12.184Z,1015.3
2024-01-29T13:34:28.427Z,1015.2
2024-01-29T13:35:44.669Z,1015.2
2024-01-29T13:37:00.919Z,1015.3
2024-01-29T13:38:17.157Z,1015.3
2024-01-29T13:39:32.415Z,1015.3
2024-01-29T13:40:48.646Z,1015.3
2024-01-29T13:42:04.884Z,1015.3
2024-01-29T13:43:21.135Z,1015.3
2024-01-29T13:44:37.375Z,1015.3
2024-01-29T13:45:53.606Z,1015.4
2024-01-29T13:47:08.882Z,1015.3
2024-01-29T13:48:25.110Z,1015.4
2024-01-29T13:49:41.352Z,1015.3
2024-01-29T13:50:57.606Z,1015.3
2024-01-29T13:52:13.827Z,1015.3
2024-01-29T13:53:30.075Z,1015.2
2024-01-29T13:54:46.327Z,1015.2
2024-01-29T13:56:02.552Z,1015.3
2024-01-29T13:57:18.797Z,1015.3
2024-01-29T13:58:35.033Z,1015.3
2024-01-29T13:59:51.289Z,1015.3
2024-01-29T14:01:07.519Z,1015.3
2024-01-29T14:02:23.761Z,1015.3
2024-01-29T14:03:39.011Z,1015.3
2024-01-29T14:04:55.267Z,1015.3
2024-01-29T14:06:11.489Z,1015.3
2024-01-29T14:07:27.732Z,1015.4
2024-01-29T14:08:43.974Z,1015.4
2024-01-29T14:10:00.228Z,1015.3
2024-01-29T14:11:16.456Z,1015.4
2024-01-29T14:12:32.695Z,1015.4
2024-01-29T14:13:48.950Z,1015.4
2024-01-29T14:15:05.185Z,1015.4
2024-01-29T14:16:21.427Z,1015.4
2024-01-29T14:17:37.669Z,1015.3
2024-01-29T14:18:53.908Z,1015.3
2024-01-29T14:20:09.160Z,1015.3
2024-01-29T14:21:25.394Z,1015.3
2024-01-29T14:22:41.635Z,1015.3
2024-01-29T14:23:57.888Z,1015.3
2024-01-29T14:25:14.114Z,1015.3
2024-01-29T14:26:30.363Z,1015.3
2024-01-29T14:27:46.598Z,1015.2
2024-01-29T14:29:02.832Z,1015.2
2024-01-29T14:30:19.074Z,1015.2
2024-01-29T14:31:35.316Z,1015.2
2024-01-29T14:32:51.567Z,1015.2
2024-01-29T14:34:07.795Z,1015.2
2024-01-29T14:35:24.045Z,1015.1
2024-01-29T14:36:39.302Z,1015.1
2024-01-29T14:37:55.534Z,1015.1
2024-01-29T14:39:11.787Z,1015.1
2024-01-29T14:40:28.013Z,1015.1
2024-01-29T14:41:44.271Z,1015.1
2024-01-29T14:43:00.506Z,1015.1
2024-01-29T14:44:16.742Z,1015.1
2024-01-29T14:45:32.975Z,1015.1
2024-01-29T14:46:49.228Z,1015.1
2024-01-29T14:48:05.460Z,1015.1
2024-01-29T14:49:21.714Z,1015.1
2024-01-29T14:50:37.942Z,1015.1
2024-01-29T14:51:54.196Z,1015
2024-01-29T14:53:09.434Z,1015
2024-01-29T14:54:25.689Z,1014.9
2024-01-29T14:55:41.930Z,1014.9
2024-01-29T14:56:58.155Z,1015
2024-01-29T14:58:14.394Z,1015
2024-01-29T14:59:30.654Z,1015
2024-01-29T15:00:46.876Z,1015
2024-01-29T15:02:03.129Z,1015.1
2024-01-29T15:03:19.362Z,1015.2
2024-01-29T15:04:35.596Z,1015.1
2024-01-29T15:05:51.850Z,1015.1
2024-01-29T15:07:08.093Z,1015.1
2024-01-29T15:08:24.329Z,1015.2
2024-01-29T15:09:39.578Z,1015.2
2024-01-29T15:10:55.814Z,1015.2
2024-01-29T15:12:12.068Z,1015.2
2024-01-29T15:13:28.302Z,1015.2
2024-01-29T15:14:44.539Z,1015.2
2024-01-29T15:16:00.779Z,1015.2
2024-01-29T15:17:17.023Z,1015.1
2024-01-29T15:18:33.266Z,1015.1
2024-01-29T15:19:49.501Z,1015.1
2024-01-29T15:21:05.741Z,1015.1
2024-01-29T15:22:21.983Z,1015.1
2024-01-29T15:23:38.222Z,1015.1
2024-01-29T15:24:54.461Z,1015.1
2024-01-29T15:26:09.722Z,1015.1
2024-01-29T15:27:25.975Z,1015.2
2024-01-29T15:28:42.197Z,1015.1
2024-01-29T15:29:58.446Z,1015.1
2024-01-29T15:31:14.692Z,1015.1
2024-01-29T15:32:30.936Z,1015.2
2024-01-29T15:33:47.159Z,1015.1
2024-01-29T15:35:03.414Z,1015.2
2024-01-29T15:36:19.650Z,1015.2
2024-01-29T15:37:35.884Z,1015.2
2024-01-29T15:38:52.128Z,1015.2
2024-01-29T15:40:08.364Z,1015.1
2024-01-29T15:41:24.606Z,1015.1
2024-01-29T15:42:39.876Z,1015.1
2024-01-29T15:43:56.110Z,1015.1
2024-01-29T15:45:12.353Z,1015.1
2024-01-29T15:46:28.598Z,1015.1
2024-01-29T15:47:44.830Z,1015.1
2024-01-29T15:49:01.080Z,1015.1
2024-01-29T15:50:17.311Z,1015.1
2024-01-29T15:51:33.561Z,1015.1
2024-01-29T15:52:49.783Z,1015.1
2024-01-29T15:54:06.028Z,1015.1